createdAt,value
2023-04-02T00:00:32.566Z,10.44
2023-04-02T00:01:40.490Z,10.44
2023-04-02T00:03:00.091Z,10.44
2023-04-02T00:04:04.686Z,10.44
2023-04-02T00:05:20.865Z,10.42
2023-04-02T00:06:45.928Z,10.42
2023-04-02T00:07:51.435Z,10.41
2023-04-02T00:08:57.540Z,10.42
2023-04-02T00:10:00.836Z,10.42
2023-04-02T00:11:04.040Z,10.42
2023-04-02T00:12:17.131Z,10.42
2023-04-02T00:13:19.946Z,10.44
2023-04-02T00:14:37.935Z,10.41
2023-04-02T00:15:47.257Z,10.38
2023-04-02T00:16:50.225Z,10.42
2023-04-02T00:17:53.197Z,10.38
2023-04-02T00:18:59.420Z,10.41
2023-04-02T00:20:10.253Z,10.42
2023-04-02T00:21:33.393Z,10.45
2023-04-02T00:22:36.342Z,10.44
2023-04-02T00:23:45.043Z,10.45
2023-04-02T00:24:51.055Z,10.42
2023-04-02T00:25:54.031Z,10.44
2023-04-02T00:26:57.314Z,10.41
2023-04-02T00:28:00.175Z,10.42
2023-04-02T00:29:04.930Z,10.41
2023-04-02T00:30:09.127Z,10.45
2023-04-02T00:31:12.700Z,10.42
2023-04-02T00:32:23.481Z,10.41
2023-04-02T00:33:29.292Z,10.45
2023-04-02T00:34:37.767Z,10.46
2023-04-02T00:35:41.069Z,10.48
2023-04-02T00:36:45.311Z,10.49
2023-04-02T00:37:48.380Z,10.48
2023-04-02T00:38:51.914Z,10.49
2023-04-02T00:40:09.377Z,10.52
2023-04-02T00:41:19.573Z,10.55
2023-04-02T00:42:23.572Z,10.57
2023-04-02T00:43:29.402Z,10.57
2023-04-02T00:44:39.982Z,10.59
2023-04-02T00:45:43.015Z,10.56
2023-04-02T00:46:50.814Z,10.53
2023-04-02T00:47:54.009Z,10.55
2023-04-02T00:49:02.777Z,10.55
2023-04-02T00:50:16.967Z,10.52
2023-04-02T00:51:28.998Z,10.49
2023-04-02T00:52:34.294Z,10.44
2023-04-02T00:53:37.577Z,10.45
2023-04-02T00:55:11.687Z,10.44
2023-04-02T00:56:20.456Z,10.42
2023-04-02T00:57:27.908Z,10.44
2023-04-02T00:58:37.789Z,10.44
2023-04-02T00:59:57.318Z,10.45
2023-04-02T01:01:01.740Z,10.42
2023-04-02T01:02:18.778Z,10.41
2023-04-02T01:03:24.019Z,10.41
2023-04-02T01:04:37.748Z,10.42
2023-04-02T01:05:42.135Z,10.44
2023-04-02T01:06:45.207Z,10.46
2023-04-02T01:08:15.717Z,10.49
2023-04-02T01:09:30.049Z,10.48
2023-04-02T01:10:44.872Z,10.46
2023-04-02T01:12:13.454Z,10.48
2023-04-02T01:13:25.049Z,10.45
2023-04-02T01:14:30.663Z,10.45
2023-04-02T01:15:44.735Z,10.39
2023-04-02T01:17:07.276Z,10.42
2023-04-02T01:18:28.021Z,10.34
2023-04-02T01:19:33.830Z,10.31
2023-04-02T01:21:16.545Z,10.31
2023-04-02T01:22:54.742Z,10.35
2023-04-02T01:23:57.563Z,10.36
2023-04-02T01:25:05.662Z,10.32
2023-04-02T01:26:20.136Z,10.28
2023-04-02T01:27:29.984Z,10.25
2023-04-02T01:29:12.000Z,10.26
2023-04-02T01:30:15.843Z,10.28
2023-04-02T01:31:19.112Z,10.28
2023-04-02T01:32:23.920Z,10.31
2023-04-02T01:33:31.161Z,10.31
2023-04-02T01:34:36.073Z,10.29
2023-04-02T01:35:42.840Z,10.26
2023-04-02T01:37:16.251Z,10.22
2023-04-02T01:38:28.573Z,10.18
2023-04-02T01:39:37.682Z,10.18
2023-04-02T01:40:59.897Z,10.18
2023-04-02T01:42:21.090Z,10.16
2023-04-02T01:43:23.893Z,10.16
2023-04-02T01:44:42.977Z,10.16
2023-04-02T01:45:46.592Z,10.14
2023-04-02T01:46:51.407Z,10.14
2023-04-02T01:47:54.449Z,10.18
2023-04-02T01:49:01.030Z,10.16
2023-04-02T01:50:21.359Z,10.19
2023-04-02T01:51:30.358Z,10.21
2023-04-02T01:52:42.376Z,10.21
2023-04-02T01:53:45.336Z,10.19
2023-04-02T01:54:49.211Z,10.22
2023-04-02T01:55:58.335Z,10.22
2023-04-02T01:57:01.295Z,10.22
2023-04-02T01:58:05.258Z,10.24
2023-04-02T01:59:08.446Z,10.22
2023-04-02T02:00:17.133Z,10.18
2023-04-02T02:01:24.588Z,10.21
2023-04-02T02:02:27.863Z,10.22
2023-04-02T02:03:31.631Z,10.22
2023-04-02T02:04:35.899Z,10.22
2023-04-02T02:05:38.913Z,10.25
2023-04-02T02:06:42.312Z,10.26
2023-04-02T02:07:46.141Z,10.31
2023-04-02T02:08:56.236Z,10.31
2023-04-02T02:09:59.251Z,10.29
2023-04-02T02:11:03.048Z,10.31
2023-04-02T02:12:06.621Z,10.36
2023-04-02T02:13:16.063Z,10.34
2023-04-02T02:14:27.620Z,10.34
2023-04-02T02:15:34.426Z,10.35
2023-04-02T02:16:43.145Z,10.38
2023-04-02T02:17:46.996Z,10.36
2023-04-02T02:18:56.437Z,10.34
2023-04-02T02:20:01.831Z,10.35
2023-04-02T02:21:08.214Z,10.32
2023-04-02T02:22:23.022Z,10.32
2023-04-02T02:23:26.662Z,10.31
2023-04-02T02:24:34.779Z,10.32
2023-04-02T02:25:38.184Z,10.26
2023-04-02T02:26:43.696Z,10.24
2023-04-02T02:28:02.139Z,10.21
2023-04-02T02:29:08.945Z,10.15
2023-04-02T02:30:29.682Z,10.11
2023-04-02T02:31:34.844Z,10.09
2023-04-02T02:32:44.544Z,10.07
2023-04-02T02:33:51.635Z,10.07
2023-04-02T02:35:19.799Z,10.05
2023-04-02T02:36:29.307Z,10.07
2023-04-02T02:37:38.463Z,10.08
2023-04-02T02:39:06.402Z,10.05
2023-04-02T02:40:25.493Z,10.04
2023-04-02T02:41:41.338Z,10.02
2023-04-02T02:42:51.291Z,9.98
2023-04-02T02:44:17.091Z,9.99
2023-04-02T02:45:25.630Z,9.98
2023-04-02T02:46:31.415Z,10.01
2023-04-02T02:47:41.289Z,9.98
2023-04-02T02:48:45.297Z,9.95
2023-04-02T02:49:53.658Z,9.93
2023-04-02T02:50:58.032Z,9.94
2023-04-02T02:52:05.247Z,9.90
2023-04-02T02:53:18.193Z,9.90
2023-04-02T02:54:22.215Z,9.88
2023-04-02T02:55:46.585Z,9.86
2023-04-02T02:56:55.834Z,9.90
2023-04-02T02:58:11.684Z,9.91
2023-04-02T02:59:16.249Z,9.90
2023-04-02T03:00:21.005Z,9.94
2023-04-02T03:01:23.942Z,9.97
2023-04-02T03:02:29.542Z,9.90
2023-04-02T03:03:35.552Z,9.91
2023-04-02T03:04:43.838Z,9.93
2023-04-02T03:05:52.341Z,9.90
2023-04-02T03:06:57.951Z,9.88
2023-04-02T03:08:03.191Z,9.84
2023-04-02T03:09:21.905Z,9.77
2023-04-02T03:10:49.888Z,9.81
2023-04-02T03:12:05.508Z,9.80
2023-04-02T03:13:26.225Z,9.81
2023-04-02T03:14:36.747Z,9.84
2023-04-02T03:15:52.622Z,9.88
2023-04-02T03:17:09.804Z,9.86
2023-04-02T03:18:18.393Z,9.81
2023-04-02T03:19:37.214Z,9.81
2023-04-02T03:20:53.699Z,9.76
2023-04-02T03:22:18.406Z,9.71
2023-04-02T03:23:48.608Z,9.63
2023-04-02T03:25:00.914Z,9.58
2023-04-02T03:26:19.802Z,9.61
2023-04-02T03:27:29.292Z,9.56
2023-04-02T03:28:35.874Z,9.54
2023-04-02T03:29:44.481Z,9.58
2023-04-02T03:30:56.993Z,9.56
2023-04-02T03:32:13.380Z,9.60
2023-04-02T03:33:28.346Z,9.61
2023-04-02T03:34:38.316Z,9.63
2023-04-02T03:36:01.549Z,9.69
2023-04-02T03:37:18.429Z,9.67
2023-04-02T03:38:28.903Z,9.70
2023-04-02T03:39:38.587Z,9.71
2023-04-02T03:40:47.146Z,9.76
2023-04-02T03:42:00.196Z,9.76
2023-04-02T03:43:15.137Z,9.74
2023-04-02T03:44:25.467Z,9.78
2023-04-02T03:45:45.372Z,9.74
2023-04-02T03:46:58.650Z,9.71
2023-04-02T03:48:35.888Z,9.74
2023-04-02T03:49:49.628Z,9.77
2023-04-02T03:51:00.131Z,9.80
2023-04-02T03:52:15.099Z,9.83
2023-04-02T03:53:18.122Z,9.84
2023-04-02T03:54:21.141Z,9.84
2023-04-02T03:55:27.391Z,9.87
2023-04-02T03:56:41.011Z,9.88
2023-04-02T03:58:22.643Z,9.93
2023-04-02T03:59:47.413Z,9.91
2023-04-02T04:01:01.269Z,9.93
2023-04-02T04:02:17.240Z,9.93
2023-04-02T04:03:31.769Z,9.95
2023-04-02T04:04:36.194Z,9.95
2023-04-02T04:05:49.656Z,9.98
2023-04-02T04:06:54.062Z,9.94
2023-04-02T04:08:02.893Z,9.97
2023-04-02T04:09:22.261Z,9.95
2023-04-02T04:10:29.280Z,9.97
2023-04-02T04:11:36.200Z,9.99
2023-04-02T04:12:47.369Z,9.98
2023-04-02T04:13:58.828Z,9.97
2023-04-02T04:15:17.822Z,9.97
2023-04-02T04:16:25.823Z,9.97
2023-04-02T04:18:25.502Z,9.91
2023-04-02T04:19:53.192Z,9.88
2023-04-02T04:21:05.025Z,9.90
2023-04-02T04:22:15.857Z,9.87
2023-04-02T04:23:31.415Z,9.86
2023-04-02T04:24:40.433Z,9.86
2023-04-02T04:25:43.315Z,9.86
2023-04-02T04:26:54.830Z,9.84
2023-04-02T04:28:25.518Z,9.83
2023-04-02T04:29:46.827Z,9.81
2023-04-02T04:31:05.350Z,9.83
2023-04-02T04:32:33.780Z,9.81
2023-04-02T04:33:45.014Z,9.84
2023-04-02T04:34:54.639Z,9.83
2023-04-02T04:36:00.393Z,9.86
2023-04-02T04:37:09.041Z,9.83
2023-04-02T04:38:13.394Z,9.84
2023-04-02T04:39:24.727Z,9.83
2023-04-02T04:40:31.847Z,9.84
2023-04-02T04:41:39.194Z,9.86
2023-04-02T04:42:45.225Z,9.84
2023-04-02T04:44:12.207Z,9.86
2023-04-02T04:45:42.803Z,9.88
2023-04-02T04:47:20.375Z,9.91
2023-04-02T04:48:35.985Z,9.90
2023-04-02T04:49:55.148Z,9.91
2023-04-02T04:51:19.425Z,9.88
2023-04-02T04:52:29.210Z,9.94
2023-04-02T04:53:32.395Z,9.91
2023-04-02T04:54:39.621Z,9.94
2023-04-02T04:55:46.531Z,9.97
2023-04-02T04:56:53.123Z,9.95
2023-04-02T04:58:01.956Z,9.94
2023-04-02T04:59:43.123Z,9.95
2023-04-02T05:01:27.476Z,9.98
2023-04-02T05:02:42.247Z,9.99
2023-04-02T05:03:47.674Z,9.99
2023-04-02T05:04:53.083Z,10.01
2023-04-02T05:06:13.047Z,10.01
2023-04-02T05:07:21.582Z,10.02
2023-04-02T05:08:30.069Z,10.04
2023-04-02T05:09:35.792Z,10.05
2023-04-02T05:11:03.622Z,10.08
2023-04-02T05:12:09.209Z,10.12
2023-04-02T05:13:26.984Z,10.12
2023-04-02T05:14:45.922Z,10.16
2023-04-02T05:16:16.909Z,10.22
2023-04-02T05:17:42.942Z,10.24
2023-04-02T05:18:54.611Z,10.29
2023-04-02T05:20:18.338Z,10.31
2023-04-02T05:21:27.635Z,10.36
2023-04-02T05:22:48.561Z,10.36
2023-04-02T05:23:57.719Z,10.35
2023-04-02T05:25:26.032Z,10.38
2023-04-02T05:26:44.464Z,10.39
2023-04-02T05:27:53.947Z,10.41
2023-04-02T05:28:59.782Z,10.39
2023-04-02T05:30:12.945Z,10.41
2023-04-02T05:31:27.247Z,10.38
2023-04-02T05:32:36.212Z,10.39
2023-04-02T05:33:40.785Z,10.41
2023-04-02T05:34:49.785Z,10.44
2023-04-02T05:36:14.096Z,10.46
2023-04-02T05:37:23.640Z,10.50
2023-04-02T05:38:29.995Z,10.50
2023-04-02T05:39:34.035Z,10.52
2023-04-02T05:40:47.465Z,10.56
2023-04-02T05:42:02.230Z,10.60
2023-04-02T05:43:10.500Z,10.65
2023-04-02T05:44:39.665Z,10.69
2023-04-02T05:45:46.667Z,10.73
2023-04-02T05:47:18.828Z,10.76
2023-04-02T05:48:27.732Z,10.83
2023-04-02T05:49:48.417Z,10.86
2023-04-02T05:50:55.856Z,10.87
2023-04-02T05:52:03.335Z,10.90
2023-04-02T05:53:20.402Z,10.92
2023-04-02T05:54:35.427Z,10.97
2023-04-02T05:55:41.262Z,11.00
2023-04-02T05:56:48.357Z,11.06
2023-04-02T05:58:13.401Z,11.08
2023-04-02T05:59:45.606Z,11.15
2023-04-02T06:00:55.160Z,11.11
2023-04-02T06:02:08.701Z,11.17
2023-04-02T06:03:46.053Z,11.18
2023-04-02T06:04:56.961Z,11.17
2023-04-02T06:06:05.091Z,11.30
2023-04-02T06:07:40.125Z,11.25
2023-04-02T06:08:53.381Z,11.31
2023-04-02T06:09:56.175Z,11.35
2023-04-02T06:11:19.576Z,11.35
2023-04-02T06:12:25.387Z,11.39
2023-04-02T06:13:29.305Z,11.41
2023-04-02T06:14:32.400Z,11.44
2023-04-02T06:15:37.586Z,11.46
2023-04-02T06:16:40.754Z,11.46
2023-04-02T06:17:54.547Z,11.52
2023-04-02T06:18:58.129Z,11.59
2023-04-02T06:20:03.163Z,11.62
2023-04-02T06:21:06.798Z,11.62
2023-04-02T06:22:20.437Z,11.68
2023-04-02T06:23:41.651Z,11.72
2023-04-02T06:24:48.638Z,11.76
2023-04-02T06:26:17.940Z,11.76
2023-04-02T06:27:23.994Z,11.86
2023-04-02T06:28:43.975Z,11.87
2023-04-02T06:29:49.778Z,11.89
2023-04-02T06:30:59.477Z,11.92
2023-04-02T06:32:03.411Z,11.96
2023-04-02T06:33:06.956Z,11.97
2023-04-02T06:34:18.454Z,12.00
2023-04-02T06:35:21.565Z,12.09
2023-04-02T06:36:26.789Z,12.10
2023-04-02T06:37:35.103Z,12.13
2023-04-02T06:38:39.279Z,12.20
2023-04-02T06:39:42.555Z,12.23
2023-04-02T06:40:58.247Z,12.26
2023-04-02T06:42:11.402Z,12.31
2023-04-02T06:43:34.736Z,12.36
2023-04-02T06:44:39.084Z,12.41
2023-04-02T06:45:45.353Z,12.47
2023-04-02T06:47:11.200Z,12.52
2023-04-02T06:48:20.666Z,12.58
2023-04-02T06:49:44.024Z,12.64
2023-04-02T06:50:57.849Z,12.74
2023-04-02T06:52:03.953Z,12.85
2023-04-02T06:53:12.991Z,12.96
2023-04-02T06:54:17.877Z,13.03
2023-04-02T06:55:58.202Z,13.12
2023-04-02T06:57:01.160Z,13.20
2023-04-02T06:58:04.012Z,13.26
2023-04-02T06:59:08.634Z,13.30
2023-04-02T07:00:34.288Z,13.30
2023-04-02T07:01:48.216Z,13.33
2023-04-02T07:02:52.458Z,13.30
2023-04-02T07:03:56.098Z,13.36
2023-04-02T07:05:05.540Z,13.37
2023-04-02T07:06:15.432Z,13.46
2023-04-02T07:07:18.422Z,13.50
2023-04-02T07:08:22.050Z,13.51
2023-04-02T07:09:24.915Z,13.58
2023-04-02T07:10:28.435Z,13.61
2023-04-02T07:11:31.291Z,13.64
2023-04-02T07:12:34.102Z,13.67
2023-04-02T07:13:37.004Z,13.70
2023-04-02T07:14:39.794Z,13.71
2023-04-02T07:15:42.687Z,13.73
2023-04-02T07:16:45.901Z,13.74
2023-04-02T07:17:48.864Z,13.78
2023-04-02T07:18:51.899Z,13.85
2023-04-02T07:19:54.814Z,13.89
2023-04-02T07:20:58.351Z,13.98
2023-04-02T07:22:01.363Z,14.02
2023-04-02T07:23:04.687Z,14.14
2023-04-02T07:24:08.208Z,14.15
2023-04-02T07:25:11.836Z,14.24
2023-04-02T07:26:17.720Z,14.30
2023-04-02T07:27:20.538Z,14.35
2023-04-02T07:28:24.128Z,14.42
2023-04-02T07:29:26.963Z,14.46
2023-04-02T07:30:29.947Z,14.49
2023-04-02T07:31:32.879Z,14.53
2023-04-02T07:32:36.521Z,14.55
2023-04-02T07:33:40.691Z,14.59
2023-04-02T07:34:45.020Z,14.59
2023-04-02T07:35:49.103Z,14.63
2023-04-02T07:36:52.799Z,14.62
2023-04-02T07:37:55.645Z,14.66
2023-04-02T07:38:59.346Z,14.66
2023-04-02T07:40:02.370Z,14.66
2023-04-02T07:41:08.431Z,14.62
2023-04-02T07:42:11.480Z,14.66
2023-04-02T07:43:14.412Z,14.67
2023-04-02T07:44:17.572Z,14.64
2023-04-02T07:45:20.596Z,14.62
2023-04-02T07:46:23.556Z,14.64
2023-04-02T07:47:26.579Z,14.59
2023-04-02T07:48:30.056Z,14.67
2023-04-02T07:49:32.877Z,14.72
2023-04-02T07:50:36.059Z,14.80
2023-04-02T07:51:38.937Z,14.88
2023-04-02T07:52:45.342Z,14.94
2023-04-02T07:53:51.465Z,15.00
2023-04-02T07:54:54.253Z,15.00
2023-04-02T07:55:58.796Z,15.04
2023-04-02T07:57:01.671Z,15.05
2023-04-02T07:58:04.545Z,15.12
2023-04-02T07:59:07.686Z,15.14
2023-04-02T08:00:13.187Z,15.15
2023-04-02T08:01:27.483Z,15.21
2023-04-02T08:02:30.358Z,15.27
2023-04-02T08:03:34.183Z,15.34
2023-04-02T08:04:37.163Z,15.32
2023-04-02T08:05:40.176Z,15.36
2023-04-02T08:06:43.270Z,15.42
2023-04-02T08:07:54.136Z,15.43
2023-04-02T08:08:58.546Z,15.41
2023-04-02T08:10:01.435Z,15.43
2023-04-02T08:11:04.300Z,15.41
2023-04-02T08:12:07.399Z,15.42
2023-04-02T08:13:10.253Z,15.46
2023-04-02T08:14:13.645Z,15.48
2023-04-02T08:15:17.416Z,15.49
2023-04-02T08:16:20.514Z,15.46
2023-04-02T08:17:23.933Z,15.41
2023-04-02T08:18:26.930Z,15.36
2023-04-02T08:19:29.887Z,15.35
2023-04-02T08:20:32.881Z,15.36
2023-04-02T08:21:35.722Z,15.35
2023-04-02T08:22:38.900Z,15.31
2023-04-02T08:23:41.808Z,15.31
2023-04-02T08:24:44.658Z,15.30
2023-04-02T08:25:47.873Z,15.24
2023-04-02T08:26:52.746Z,15.24
2023-04-02T08:27:55.800Z,15.25
2023-04-02T08:28:58.666Z,15.27
2023-04-02T08:30:01.473Z,15.22
2023-04-02T08:31:05.905Z,15.17
2023-04-02T08:32:08.890Z,15.17
2023-04-02T08:33:12.069Z,15.14
2023-04-02T08:34:15.227Z,15.10
2023-04-02T08:35:18.185Z,15.07
2023-04-02T08:36:26.078Z,15.00
2023-04-02T08:37:29.381Z,14.97
2023-04-02T08:38:32.274Z,14.93
2023-04-02T08:39:36.488Z,14.94
2023-04-02T08:40:42.909Z,14.93
2023-04-02T08:42:10.215Z,14.94
2023-04-02T08:43:23.472Z,14.93
2023-04-02T08:44:39.286Z,14.93
2023-04-02T08:46:20.272Z,14.97
2023-04-02T08:47:27.283Z,14.91
2023-04-02T08:48:33.196Z,14.98
2023-04-02T08:49:38.856Z,15.03
2023-04-02T08:50:46.514Z,15.05
2023-04-02T08:51:49.576Z,15.05
2023-04-02T08:52:53.122Z,15.07
2023-04-02T08:54:01.670Z,15.10
2023-04-02T08:55:13.988Z,15.08
2023-04-02T08:57:06.508Z,15.11
2023-04-02T08:58:32.052Z,15.08
2023-04-02T08:59:41.437Z,15.07
2023-04-02T09:00:46.425Z,15.10
2023-04-02T09:01:56.414Z,15.12
2023-04-02T09:03:15.635Z,15.10
2023-04-02T09:04:22.431Z,15.10
2023-04-02T09:05:29.917Z,15.11
2023-04-02T09:06:34.844Z,15.10
2023-04-02T09:07:37.843Z,15.07
2023-04-02T09:08:41.891Z,15.14
2023-04-02T09:09:49.865Z,15.12
2023-04-02T09:11:27.401Z,15.17
2023-04-02T09:12:33.955Z,15.22
2023-04-02T09:13:42.031Z,15.27
2023-04-02T09:14:51.629Z,15.28
2023-04-02T09:16:07.398Z,15.34
2023-04-02T09:17:24.645Z,15.39
2023-04-02T09:18:31.429Z,15.45
2023-04-02T09:19:38.823Z,15.46
2023-04-02T09:20:42.291Z,15.48
2023-04-02T09:21:58.766Z,15.48
2023-04-02T09:23:01.698Z,15.49
2023-04-02T09:24:06.187Z,15.51
2023-04-02T09:25:15.831Z,15.52
2023-04-02T09:26:24.874Z,15.53
2023-04-02T09:27:33.574Z,15.51
2023-04-02T09:28:36.413Z,15.51
2023-04-02T09:29:46.028Z,15.53
2023-04-02T09:30:49.105Z,15.53
2023-04-02T09:32:06.397Z,15.56
2023-04-02T09:33:10.343Z,15.58
2023-04-02T09:34:35.954Z,15.66
2023-04-02T09:35:50.989Z,15.59
2023-04-02T09:36:54.097Z,15.62
2023-04-02T09:38:26.147Z,15.69
2023-04-02T09:39:29.133Z,15.67
2023-04-02T09:40:46.646Z,15.69
2023-04-02T09:41:59.069Z,15.72
2023-04-02T09:43:19.851Z,15.73
2023-04-02T09:44:26.627Z,15.79
2023-04-02T09:45:29.830Z,15.74
2023-04-02T09:46:32.822Z,15.73
2023-04-02T09:47:37.069Z,15.74
2023-04-02T09:48:45.569Z,15.80
2023-04-02T09:49:48.544Z,15.89
2023-04-02T09:50:51.532Z,15.94
2023-04-02T09:52:09.785Z,15.93
2023-04-02T09:53:50.410Z,15.94
2023-04-02T09:55:14.543Z,15.93
2023-04-02T09:56:19.305Z,15.96
2023-04-02T09:57:29.501Z,15.97
2023-04-02T09:58:32.524Z,16.01
2023-04-02T09:59:35.686Z,15.96
2023-04-02T10:00:39.009Z,15.97
2023-04-02T10:01:54.789Z,16.00
2023-04-02T10:03:08.185Z,16.01
2023-04-02T10:04:48.916Z,15.90
2023-04-02T10:06:12.785Z,15.93
2023-04-02T10:07:49.123Z,15.93
2023-04-02T10:08:52.972Z,16.00
2023-04-02T10:10:03.208Z,16.06
2023-04-02T10:11:26.951Z,16.07
2023-04-02T10:12:42.493Z,16.09
2023-04-02T10:14:01.908Z,16.13
2023-04-02T10:15:05.834Z,16.18
2023-04-02T10:16:11.640Z,16.21
2023-04-02T10:17:22.452Z,16.20
2023-04-02T10:18:31.059Z,16.24
2023-04-02T10:19:49.008Z,16.22
2023-04-02T10:20:55.242Z,16.22
2023-04-02T10:22:00.292Z,16.22
2023-04-02T10:23:04.441Z,16.21
2023-04-02T10:24:14.521Z,16.20
2023-04-02T10:25:20.824Z,16.18
2023-04-02T10:26:29.660Z,16.16
2023-04-02T10:27:44.257Z,16.18
2023-04-02T10:29:06.859Z,16.20
2023-04-02T10:30:10.818Z,16.22
2023-04-02T10:31:28.733Z,16.25
2023-04-02T10:32:49.942Z,16.22
2023-04-02T10:34:02.894Z,16.25
2023-04-02T10:35:12.977Z,16.28
2023-04-02T10:36:48.104Z,16.40
2023-04-02T10:38:25.763Z,16.57
2023-04-02T10:40:12.054Z,16.76
2023-04-02T10:41:27.957Z,16.97
2023-04-02T10:43:04.830Z,17.06
2023-04-02T10:44:31.765Z,17.20
2023-04-02T10:45:34.840Z,17.28
2023-04-02T10:47:15.118Z,17.43
2023-04-02T10:48:29.686Z,17.60
2023-04-02T10:49:52.782Z,17.73
2023-04-02T10:51:32.191Z,17.91
2023-04-02T10:52:44.586Z,18.06
2023-04-02T10:53:53.978Z,18.12
2023-04-02T10:55:02.960Z,18.09
2023-04-02T10:56:11.436Z,18.08
2023-04-02T10:57:40.784Z,17.98
2023-04-02T10:59:12.238Z,17.94
2023-04-02T11:00:22.353Z,17.92
2023-04-02T11:01:30.547Z,17.94
2023-04-02T11:02:36.240Z,17.98
2023-04-02T11:03:49.996Z,18.02
2023-04-02T11:04:57.123Z,18.04
2023-04-02T11:06:19.923Z,17.92
2023-04-02T11:07:27.666Z,17.88
2023-04-02T11:08:50.050Z,17.71
2023-04-02T11:09:56.101Z,17.63
2023-04-02T11:11:22.604Z,17.57
2023-04-02T11:12:41.770Z,17.53
2023-04-02T11:14:00.160Z,17.44
2023-04-02T11:15:03.981Z,17.41
2023-04-02T11:16:07.184Z,17.36
2023-04-02T11:17:15.453Z,17.26
2023-04-02T11:18:26.049Z,17.22
2023-04-02T11:19:33.163Z,17.15
2023-04-02T11:21:00.781Z,17.12
2023-04-02T11:22:06.685Z,17.07
2023-04-02T11:23:22.832Z,17.06
2023-04-02T11:24:34.095Z,17.00
2023-04-02T11:25:37.503Z,17.00
2023-04-02T11:26:47.491Z,17.00
2023-04-02T11:27:50.463Z,16.96
2023-04-02T11:29:04.358Z,16.89
2023-04-02T11:30:07.818Z,16.82
2023-04-02T11:31:22.117Z,16.79
2023-04-02T11:32:30.891Z,16.78
2023-04-02T11:33:39.920Z,16.80
2023-04-02T11:34:59.795Z,16.82
2023-04-02T11:36:47.533Z,16.89
2023-04-02T11:37:50.442Z,16.93
2023-04-02T11:38:54.943Z,17.06
2023-04-02T11:40:01.096Z,17.20
2023-04-02T11:41:04.096Z,17.33
2023-04-02T11:42:24.946Z,17.40
2023-04-02T11:43:34.187Z,17.53
2023-04-02T11:44:37.297Z,17.63
2023-04-02T11:45:52.848Z,17.71
2023-04-02T11:47:23.559Z,17.79
2023-04-02T11:48:37.574Z,17.94
2023-04-02T11:49:42.286Z,18.02
2023-04-02T11:50:47.006Z,18.05
2023-04-02T11:52:02.175Z,18.12
2023-04-02T11:53:14.834Z,18.15
2023-04-02T11:54:31.112Z,18.17
2023-04-02T11:55:36.317Z,18.25
2023-04-02T11:57:12.374Z,18.26
2023-04-02T11:58:22.369Z,18.30
2023-04-02T11:59:46.389Z,18.39
2023-04-02T12:00:53.720Z,18.47
2023-04-02T12:02:18.316Z,18.50
2023-04-02T12:03:49.817Z,18.53
2023-04-02T12:05:16.945Z,18.53
2023-04-02T12:06:27.114Z,18.47
2023-04-02T12:08:07.032Z,18.53
2023-04-02T12:09:25.055Z,18.59
2023-04-02T12:10:35.845Z,18.67
2023-04-02T12:11:41.355Z,18.73
2023-04-02T12:12:44.544Z,18.68
2023-04-02T12:13:52.244Z,18.75
2023-04-02T12:14:57.659Z,18.71
2023-04-02T12:16:01.876Z,18.71
2023-04-02T12:17:17.263Z,18.71
2023-04-02T12:18:24.820Z,18.75
2023-04-02T12:19:28.947Z,18.80
2023-04-02T12:20:32.922Z,18.84
2023-04-02T12:21:36.146Z,18.90
2023-04-02T12:22:48.923Z,18.97
2023-04-02T12:23:55.800Z,18.97
2023-04-02T12:25:16.854Z,18.95
2023-04-02T12:26:33.442Z,18.97
2023-04-02T12:27:39.328Z,18.97
2023-04-02T12:28:43.712Z,18.97
2023-04-02T12:29:46.688Z,18.97
2023-04-02T12:30:52.385Z,18.97
2023-04-02T12:31:58.090Z,18.94
2023-04-02T12:33:17.093Z,18.78
2023-04-02T12:34:22.628Z,18.75
2023-04-02T12:35:37.718Z,18.73
2023-04-02T12:36:41.665Z,18.77
2023-04-02T12:37:46.182Z,18.80
2023-04-02T12:38:57.681Z,18.84
2023-04-02T12:40:07.156Z,18.74
2023-04-02T12:41:31.299Z,18.80
2023-04-02T12:42:39.013Z,18.80
2023-04-02T12:43:44.698Z,18.83
2023-04-02T12:44:50.832Z,18.85
2023-04-02T12:46:01.855Z,18.91
2023-04-02T12:47:06.075Z,18.98
2023-04-02T12:48:12.897Z,18.95
2023-04-02T12:49:29.588Z,18.98
2023-04-02T12:50:35.283Z,18.98
2023-04-02T12:51:38.943Z,19.01
2023-04-02T12:52:47.040Z,19.00
2023-04-02T12:53:57.113Z,19.01
2023-04-02T12:55:02.658Z,18.91
2023-04-02T12:56:06.999Z,18.80
2023-04-02T12:57:28.081Z,18.74
2023-04-02T12:58:41.994Z,18.56
2023-04-02T12:59:45.179Z,18.49
2023-04-02T13:00:48.250Z,18.43
2023-04-02T13:02:02.800Z,18.29
2023-04-02T13:03:19.717Z,18.16
2023-04-02T13:04:23.468Z,18.16
2023-04-02T13:05:46.137Z,18.08
2023-04-02T13:06:53.469Z,18.05
2023-04-02T13:07:56.361Z,17.96
2023-04-02T13:09:02.170Z,17.85
2023-04-02T13:10:23.034Z,17.88
2023-04-02T13:11:36.930Z,17.84
2023-04-02T13:12:42.057Z,17.82
2023-04-02T13:13:47.453Z,17.81
2023-04-02T13:15:03.371Z,17.78
2023-04-02T13:16:18.693Z,17.74
2023-04-02T13:18:29.968Z,17.71
2023-04-02T13:19:35.087Z,17.71
2023-04-02T13:20:43.117Z,17.68
2023-04-02T13:21:47.303Z,17.65
2023-04-02T13:22:50.213Z,17.55
2023-04-02T13:23:53.076Z,17.54
2023-04-02T13:24:57.682Z,17.51
2023-04-02T13:26:27.438Z,17.47
2023-04-02T13:27:30.323Z,17.44
2023-04-02T13:28:33.193Z,17.33
2023-04-02T13:29:37.720Z,17.31
2023-04-02T13:30:40.652Z,17.31
2023-04-02T13:31:43.976Z,17.26
2023-04-02T13:32:47.197Z,17.26
2023-04-02T13:33:50.130Z,17.27
2023-04-02T13:34:53.353Z,17.24
2023-04-02T13:35:56.381Z,17.26
2023-04-02T13:36:59.888Z,17.22
2023-04-02T13:38:04.262Z,17.12
2023-04-02T13:39:07.388Z,17.12
2023-04-02T13:40:15.582Z,17.06
2023-04-02T13:41:29.815Z,17.03
2023-04-02T13:42:32.794Z,16.96
2023-04-02T13:43:35.781Z,16.93
2023-04-02T13:44:38.957Z,16.89
2023-04-02T13:45:43.851Z,16.89
2023-04-02T13:46:46.795Z,16.88
2023-04-02T13:47:49.719Z,16.93
2023-04-02T13:48:54.224Z,16.93
2023-04-02T13:49:57.041Z,16.93
2023-04-02T13:51:00.043Z,16.89
2023-04-02T13:52:07.474Z,16.85
2023-04-02T13:53:21.936Z,16.72
2023-04-02T13:54:32.404Z,16.65
2023-04-02T13:55:41.208Z,16.64
2023-04-02T13:56:44.435Z,16.57
2023-04-02T13:57:47.463Z,16.45
2023-04-02T13:58:50.464Z,16.35
2023-04-02T13:59:55.107Z,16.31
2023-04-02T14:00:58.164Z,16.30
2023-04-02T14:02:09.987Z,16.28
2023-04-02T14:03:19.922Z,16.17
2023-04-02T14:04:27.216Z,16.11
2023-04-02T14:05:55.064Z,16.10
2023-04-02T14:07:21.452Z,16.01
2023-04-02T14:08:52.859Z,16.00
2023-04-02T14:10:18.391Z,16.03
2023-04-02T14:12:09.079Z,16.03
2023-04-02T14:13:14.798Z,16.07
2023-04-02T14:14:46.235Z,16.11
2023-04-02T14:15:52.080Z,16.11
2023-04-02T14:17:12.085Z,16.17
2023-04-02T14:18:44.605Z,16.21
2023-04-02T14:20:13.370Z,16.20
2023-04-02T14:21:22.507Z,16.22
2023-04-02T14:22:51.313Z,16.30
2023-04-02T14:24:13.125Z,16.35
2023-04-02T14:25:40.934Z,16.41
2023-04-02T14:26:46.872Z,16.45
2023-04-02T14:28:24.249Z,16.45
2023-04-02T14:29:43.700Z,16.51
2023-04-02T14:31:07.895Z,16.54
2023-04-02T14:32:32.778Z,16.51
2023-04-02T14:33:45.744Z,16.47
2023-04-02T14:35:26.857Z,16.45
2023-04-02T14:36:32.622Z,16.44
2023-04-02T14:37:50.706Z,16.47
2023-04-02T14:39:07.741Z,16.38
2023-04-02T14:40:19.654Z,16.28
2023-04-02T14:41:36.208Z,16.22
2023-04-02T14:43:02.051Z,16.18
2023-04-02T14:44:07.976Z,16.17
2023-04-02T14:45:36.904Z,16.07
2023-04-02T14:46:40.955Z,16.03
2023-04-02T14:48:28.302Z,15.90
2023-04-02T14:49:40.996Z,15.85
2023-04-02T14:50:44.497Z,15.79
2023-04-02T14:51:54.203Z,15.74
2023-04-02T14:53:01.741Z,15.72
2023-04-02T14:54:05.095Z,15.66
2023-04-02T14:55:19.310Z,15.66
2023-04-02T14:56:25.576Z,15.66
2023-04-02T14:57:32.836Z,15.63
2023-04-02T14:58:39.888Z,15.58
2023-04-02T15:00:03.931Z,15.49
2023-04-02T15:01:28.592Z,15.46
2023-04-02T15:02:46.048Z,15.46
2023-04-02T15:04:06.666Z,15.42
2023-04-02T15:05:30.021Z,15.38
2023-04-02T15:06:39.008Z,15.35
2023-04-02T15:07:50.884Z,15.27
2023-04-02T15:09:09.019Z,15.20
2023-04-02T15:10:38.127Z,15.15
2023-04-02T15:12:01.200Z,15.05
2023-04-02T15:13:09.888Z,15.04
2023-04-02T15:14:29.082Z,15.10
2023-04-02T15:15:45.889Z,15.08
2023-04-02T15:16:48.852Z,15.12
2023-04-02T15:17:51.815Z,15.20
2023-04-02T15:18:57.766Z,15.24
2023-04-02T15:20:14.996Z,15.30
2023-04-02T15:21:20.600Z,15.30
2023-04-02T15:23:15.514Z,15.34
2023-04-02T15:24:52.803Z,15.38
2023-04-02T15:26:23.142Z,15.32
2023-04-02T15:27:34.651Z,15.36